ADDS TAF Data INFO
IDs: Format: Raw Decoded Include METARs

Data at: 1221 UTC 20 May 2018

KDMN 201153Z AUTO 23003KT 10SM CLR 09/M12 A3000 RMK AO2 SLP097 T00891122 10167 20083 53014

KDMN 201120Z 2012/2112 VRB05KT P6SM SKC
  FM201500 07008KT P6SM SKC
  FM202000 17010G18KT P6SM FEW090 FEW250
  FM210200 10013KT P6SM FEW100